createdAt,value
2019-02-19T06:37:12.415Z,38.70
2019-02-19T06:39:40.916Z,34.50
2019-02-19T06:47:07.092Z,33.90
2019-02-19T06:49:35.907Z,37.90
2019-02-19T06:52:04.573Z,34.20
2019-02-19T06:54:33.136Z,31.10
2019-02-19T06:57:01.655Z,31.30
2019-02-19T06:59:30.192Z,27.20
2019-02-19T07:02:05.852Z,27.50
2019-02-19T07:04:36.114Z,27.00
2019-02-19T07:07:04.690Z,27.30
2019-02-19T07:09:33.262Z,26.70
2019-02-19T07:12:01.900Z,27.30
2019-02-19T07:16:58.817Z,25.90
2019-02-19T07:19:27.494Z,25.70
2019-02-19T07:21:56.143Z,24.00
2019-02-19T07:24:24.729Z,24.10
2019-02-19T07:26:53.411Z,25.30
2019-02-19T07:29:21.974Z,23.70
2019-02-19T07:34:18.889Z,30.00
2019-02-19T07:36:48.365Z,30.20
2019-02-19T07:39:16.966Z,30.30
2019-02-19T07:41:45.679Z,29.80
2019-02-19T07:44:14.167Z,29.70
2019-02-19T07:46:42.660Z,29.40
2019-02-19T07:49:11.353Z,29.70
2019-02-19T07:51:39.800Z,29.80
2019-02-19T07:54:08.291Z,31.50
2019-02-19T07:56:36.894Z,31.30
2019-02-19T08:01:33.860Z,31.20
2019-02-19T08:06:30.747Z,31.70
2019-02-19T08:08:59.438Z,34.00
2019-02-19T08:11:28.095Z,37.40
2019-02-19T08:13:56.762Z,36.10
2019-02-19T08:18:53.812Z,38.50
2019-02-19T08:21:22.473Z,43.60
2019-02-19T08:23:51.094Z,35.90
2019-02-19T08:28:48.156Z,41.00
2019-02-19T08:31:16.884Z,40.00
2019-02-19T08:33:45.514Z,36.80
2019-02-19T08:36:14.024Z,36.80
2019-02-19T08:38:43.449Z,36.50
2019-02-19T08:41:12.157Z,36.80
2019-02-19T08:43:40.741Z,37.00
2019-02-19T08:46:09.410Z,34.00
2019-02-19T08:48:38.013Z,30.50
2019-02-19T08:56:03.165Z,33.80
2019-02-19T08:58:31.873Z,36.70
2019-02-19T09:01:00.452Z,36.00
2019-02-19T09:05:57.383Z,33.00
2019-02-19T09:08:26.043Z,36.00
2019-02-19T09:10:54.813Z,36.90
2019-02-19T09:13:23.449Z,37.30
2019-02-19T09:15:52.104Z,37.40
2019-02-19T09:18:20.663Z,41.10
2019-02-19T09:20:49.228Z,39.20
2019-02-19T09:25:46.265Z,31.90
2019-02-19T09:28:14.839Z,32.60
2019-02-19T09:35:42.998Z,34.10
2019-02-19T10:10:22.638Z,73.10
2019-02-19T10:15:19.471Z,58.00
2019-02-19T10:20:16.431Z,66.70
2019-02-19T10:27:42.181Z,45.70
2019-02-19T10:30:18.533Z,48.70
2019-02-19T10:32:47.168Z,51.80
2019-02-19T10:35:15.737Z,42.30
2019-02-19T10:42:43.478Z,44.80
2019-02-19T10:45:19.882Z,48.70
2019-02-19T10:47:48.533Z,42.30
2019-02-19T10:50:17.120Z,37.70
2019-02-19T10:55:14.150Z,31.90
2019-02-19T11:00:18.308Z,42.70
2019-02-19T11:02:47.510Z,48.10
2019-02-19T11:05:16.080Z,50.50
2019-02-19T11:10:14.120Z,58.10
2019-02-19T11:12:42.689Z,42.60
2019-02-19T11:15:15.099Z,58.20
2019-02-19T11:20:17.466Z,44.60
2019-02-19T11:22:46.077Z,47.20
2019-02-19T11:25:14.651Z,48.40
2019-02-19T11:27:43.150Z,41.80
2019-02-19T11:32:41.674Z,36.30
2019-02-19T11:37:38.473Z,37.00
2019-02-19T11:40:09.910Z,28.60
2019-02-19T11:42:38.495Z,29.10
2019-02-19T11:45:10.274Z,27.40
2019-02-19T11:47:38.861Z,27.50
2019-02-19T11:50:08.641Z,26.30
2019-02-19T11:52:37.261Z,26.10
2019-02-19T11:55:10.893Z,26.70
2019-02-19T11:57:39.492Z,26.10
2019-02-19T12:00:12.945Z,26.30
2019-02-19T12:02:41.590Z,27.90
2019-02-19T12:05:10.165Z,28.40
2019-02-19T12:07:38.854Z,28.80
2019-02-19T12:10:11.897Z,28.50
2019-02-19T12:12:40.391Z,28.50
2019-02-19T12:15:11.009Z,28.70
2019-02-19T12:17:39.654Z,28.70
2019-02-19T12:20:12.548Z,30.00
2019-02-19T12:22:41.241Z,30.60
2019-02-19T12:25:10.424Z,30.60
2019-02-19T12:27:38.992Z,30.50
2019-02-19T12:30:16.496Z,29.20
2019-02-19T12:32:45.147Z,27.90
2019-02-19T12:35:13.801Z,26.70
2019-02-19T12:37:42.489Z,25.70
2019-02-19T12:40:13.392Z,25.00
2019-02-19T12:42:41.970Z,24.50
2019-02-19T12:45:13.834Z,25.80
2019-02-19T12:47:42.437Z,28.10
2019-02-19T12:50:15.950Z,29.00
2019-02-19T12:52:44.628Z,27.80
2019-02-19T12:55:13.266Z,27.20
2019-02-19T12:57:41.910Z,27.10
2019-02-19T13:00:17.665Z,26.40
2019-02-19T13:02:46.329Z,24.90
2019-02-19T13:05:15.771Z,25.60
2019-02-19T13:07:44.441Z,27.20
2019-02-19T13:10:13.015Z,28.40
2019-02-19T13:12:41.695Z,28.30
2019-02-19T13:15:18.823Z,28.00
2019-02-19T13:17:47.476Z,28.10
2019-02-19T13:20:16.120Z,28.70
2019-02-19T13:22:44.799Z,26.70
2019-02-19T13:25:13.439Z,27.40
2019-02-19T13:27:42.084Z,26.80
2019-02-19T13:30:24.139Z,25.00
2019-02-19T13:32:52.786Z,24.10
2019-02-19T13:35:21.433Z,23.90
2019-02-19T13:37:50.111Z,24.20
2019-02-19T13:40:19.572Z,24.30
2019-02-19T13:50:17.661Z,71.90
2019-02-19T14:00:19.186Z,54.90
2019-02-19T14:02:47.824Z,69.30
2019-02-19T14:12:41.542Z,72.10
2019-02-19T14:15:13.204Z,74.00
2019-02-19T14:22:44.530Z,68.60
2019-02-19T14:25:20.269Z,71.10
2019-02-19T14:28:06.853Z,32.60
2019-02-19T14:30:37.109Z,34.00
2019-02-19T14:33:07.762Z,33.30
2019-02-19T14:35:49.977Z,32.20
2019-02-19T14:38:23.127Z,31.40
2019-02-19T14:41:05.465Z,31.50
2019-02-19T14:43:35.744Z,31.70
2019-02-19T14:46:11.821Z,31.70
2019-02-19T14:48:51.977Z,31.00
2019-02-19T14:51:22.616Z,31.00
2019-02-19T14:53:52.898Z,31.30
2019-02-19T14:56:40.148Z,29.90
2019-02-19T14:59:16.404Z,29.40
2019-02-19T15:02:04.704Z,29.10
2019-02-19T15:04:40.602Z,28.10
2019-02-19T15:07:13.920Z,28.80
2019-02-19T15:09:49.780Z,27.80
2019-02-19T15:12:20.292Z,27.40
2019-02-19T15:14:53.433Z,26.80
2019-02-19T15:17:26.606Z,26.70
2019-02-19T15:19:59.766Z,26.60
2019-02-19T15:22:29.966Z,26.70
2019-02-19T15:25:18.561Z,26.80
2019-02-19T15:27:51.997Z,27.00
2019-02-19T15:30:31.423Z,26.60
2019-02-19T15:33:01.706Z,26.70
2019-02-19T15:35:44.170Z,26.70
2019-02-19T15:38:30.824Z,26.60
2019-02-19T15:41:17.264Z,26.40
2019-02-19T15:43:50.497Z,27.60
2019-02-19T15:46:26.171Z,27.20
2019-02-19T15:48:58.291Z,27.30
2019-02-19T15:51:37.519Z,28.80
2019-02-19T15:54:13.739Z,29.10
2019-02-19T15:56:43.942Z,28.30
2019-02-19T15:59:16.649Z,27.90
2019-02-19T16:01:46.861Z,28.50
2019-02-19T16:04:17.117Z,27.70
2019-02-19T16:06:50.107Z,27.80
2019-02-19T16:09:20.253Z,27.30
2019-02-19T16:12:05.591Z,27.60
2019-02-19T16:14:47.834Z,28.00
2019-02-19T16:17:20.972Z,27.30
2019-02-19T16:19:56.979Z,27.40
2019-02-19T16:22:31.655Z,27.20
2019-02-19T16:25:18.278Z,27.20
2019-02-19T16:27:54.385Z,28.70
2019-02-19T16:30:33.598Z,27.80
2019-02-19T16:33:03.853Z,27.80
2019-02-19T16:35:34.093Z,27.00
2019-02-19T16:38:20.245Z,26.60
2019-02-19T16:40:52.981Z,26.30
2019-02-19T16:43:25.986Z,26.80
2019-02-19T16:45:56.286Z,25.70
2019-02-19T16:48:41.872Z,26.00
2019-02-19T16:51:12.099Z,26.80
2019-02-19T16:54:00.520Z,26.70
2019-02-19T16:56:30.782Z,25.90
2019-02-19T16:59:16.977Z,25.00
2019-02-19T17:02:05.482Z,25.20
2019-02-19T17:04:37.808Z,25.20
2019-02-19T17:07:10.722Z,25.80
2019-02-19T17:09:59.377Z,25.70
2019-02-19T17:12:35.469Z,25.00
2019-02-19T17:15:14.873Z,24.80
2019-02-19T17:17:47.853Z,25.80
2019-02-19T17:20:28.844Z,27.00
2019-02-19T17:22:55.747Z,26.90
2019-02-19T17:25:45.297Z,27.50
2019-02-19T17:28:18.230Z,27.60
2019-02-19T17:31:00.231Z,29.70
2019-02-19T17:33:30.377Z,29.70
2019-02-19T17:36:10.677Z,29.10
2019-02-19T17:38:40.835Z,29.10
2019-02-19T17:41:26.365Z,29.40
2019-02-19T17:43:56.589Z,30.00
2019-02-19T17:46:41.857Z,29.90
2019-02-19T17:49:21.317Z,29.70
2019-02-19T17:52:04.492Z,29.60
2019-02-19T17:54:34.689Z,29.70
2019-02-19T17:57:14.007Z,30.60
2019-02-19T17:59:44.230Z,30.70
2019-02-19T18:02:18.900Z,30.50
2019-02-19T18:04:49.135Z,31.10
2019-02-19T18:07:28.279Z,33.10
2019-02-19T18:10:07.338Z,33.80
2019-02-19T18:12:37.587Z,33.60
2019-02-19T18:15:24.926Z,32.90
2019-02-19T18:18:04.071Z,32.40
2019-02-19T18:20:32.707Z,33.00
2019-02-19T18:23:01.810Z,32.70
2019-02-19T18:25:30.413Z,33.60
2019-02-19T18:27:58.979Z,33.50
2019-02-19T18:30:27.629Z,33.20
2019-02-19T18:32:56.251Z,32.50
2019-02-19T18:35:26.558Z,34.00
2019-02-19T18:37:55.004Z,34.80
2019-02-19T18:40:23.588Z,34.60
2019-02-19T18:42:52.247Z,34.30
2019-02-19T18:45:21.218Z,35.20
2019-02-19T18:47:49.838Z,35.50
2019-02-19T18:50:18.349Z,35.80
2019-02-19T18:52:47.963Z,36.60
2019-02-19T18:55:18.224Z,36.10
2019-02-19T18:57:46.803Z,35.90
2019-02-19T19:00:16.629Z,35.90
2019-02-19T19:02:45.233Z,36.40
2019-02-19T19:05:13.821Z,37.20
2019-02-19T19:07:42.471Z,37.70
2019-02-19T19:10:12.347Z,37.20
2019-02-19T19:12:41.067Z,37.40
2019-02-19T19:15:10.338Z,38.20
2019-02-19T19:17:38.992Z,37.20
2019-02-19T19:20:11.663Z,36.50
2019-02-19T19:22:40.357Z,36.00
2019-02-19T19:25:09.331Z,36.20
2019-02-19T19:27:37.954Z,37.10
2019-02-19T19:30:09.596Z,37.60
2019-02-19T19:32:38.301Z,37.60
2019-02-19T19:35:11.414Z,38.10
2019-02-19T19:37:51.806Z,36.80
2019-02-19T19:40:17.858Z,36.80
2019-02-19T19:42:46.491Z,37.00
2019-02-19T19:45:15.150Z,36.80
2019-02-19T19:47:43.809Z,36.30
2019-02-19T19:50:12.493Z,36.30
2019-02-19T19:52:42.634Z,36.20
2019-02-19T19:55:11.663Z,36.00
2019-02-19T19:57:41.876Z,34.70
2019-02-19T20:00:12.756Z,35.20
2019-02-19T20:02:41.388Z,35.40
2019-02-19T20:05:10.651Z,34.90
2019-02-19T20:07:39.322Z,33.70
2019-02-19T20:10:12.759Z,33.90
2019-02-19T20:12:41.376Z,34.80
2019-02-19T20:15:11.945Z,36.20
2019-02-19T20:17:43.428Z,35.90
2019-02-19T20:20:15.063Z,36.20
2019-02-19T20:22:44.994Z,37.30
2019-02-19T20:25:14.675Z,37.20
2019-02-19T20:27:43.347Z,37.30
2019-02-19T20:30:27.667Z,36.20
2019-02-19T20:32:56.242Z,36.70
2019-02-19T20:35:25.199Z,36.90
2019-02-19T20:37:56.011Z,37.80
2019-02-19T20:40:24.929Z,37.80
2019-02-19T20:42:55.100Z,37.20
2019-02-19T20:45:26.107Z,38.20
2019-02-19T20:47:54.753Z,37.70
2019-02-19T20:50:23.414Z,36.40
2019-02-19T20:52:52.102Z,36.00
2019-02-19T20:55:20.764Z,36.00
2019-02-19T20:57:49.420Z,35.10
2019-02-19T21:00:18.526Z,34.60
2019-02-19T21:02:47.075Z,35.80
2019-02-19T21:05:15.738Z,36.30
2019-02-19T21:10:18.539Z,44.60
2019-02-19T21:12:47.172Z,76.20
2019-02-19T21:15:15.916Z,82.40
2019-02-19T21:20:13.089Z,78.20
2019-02-19T21:22:42.158Z,81.20
2019-02-19T21:32:40.474Z,81.40
2019-02-19T21:35:09.720Z,83.60
2019-02-19T21:47:38.826Z,75.60
2019-02-19T22:00:24.304Z,64.80
2019-02-19T22:02:55.843Z,81.60
2019-02-19T22:07:52.717Z,82.10
2019-02-19T22:15:17.770Z,81.80
2019-02-19T22:17:46.417Z,81.30
2019-02-19T22:22:54.905Z,76.20
2019-02-19T22:30:20.402Z,63.70
2019-02-19T22:35:19.107Z,74.90
2019-02-19T22:40:15.859Z,73.10
2019-02-19T22:45:12.867Z,76.20
2019-02-19T23:05:07.727Z,80.00
2019-02-19T23:12:34.558Z,79.20
2019-02-19T23:15:03.192Z,74.50
2019-02-19T23:17:31.840Z,75.70
2019-02-19T23:22:29.022Z,70.20
2019-02-19T23:24:57.602Z,68.50
2019-02-19T23:27:26.213Z,67.80
2019-02-19T23:32:23.112Z,65.80
2019-02-19T23:47:15.585Z,80.40
2019-02-19T23:49:44.270Z,66.60
2019-02-19T23:52:12.895Z,74.70
